KATY/ATY METAR and TAF weather

Enter ICAO airport designator
Station Type Date Time Source
KATY METAR 2022/06/25 21:53 UTC NOAA

KATY 252153Z AUTO 30020G30KT 10SM FEW049 22/09 A3007 RMK AO2 PK WND 28031/2137 SLP176 T02220094


Station Type Date Time Source
KATY Decoded METAR 2022/06/25 21:53 UTC NOAA

WATERTOWN MUNICIPAL AIRPORT, SD, United States (KATY) 44-54N 097-09W 532M
Jun 25, 2022 - 05:53 PM EDT / 2022.06.25 2153 UTC
Wind: from the WNW (300 degrees) at 23 MPH (20 KT) gusting to 35 MPH (30 KT):0
Visibility: 10 mile(s):0
Sky conditions: mostly clear
Temperature: 72.0 F (22.2 C)
Dew Point: 48.9 F (9.4 C)
Relative Humidity: 44%
Pressure (altimeter): 30.07 in. Hg (1018 hPa)
ob: KATY 252153Z AUTO 30020G30KT 10SM FEW049 22/09 A3007 RMK AO2 PK WND 28031/2137 SLP176 T02220094
cycle: 22

Station Type Date Time Source
KATY TAF 2022/06/25 18:22 UTC NOAA

TAF KATY 251720Z 2518/2618 30014G26KT P6SM FEW040
FM260800 29009KT P6SM SKC
FM261500 30012G20KT P6SM SKC

Example: see airport list